Time;durP1;ratioP1;P1;durP2;ratioP2;P2;SDS_P1;SDS_P2;PMS_P1;PMS_P2;Temp;Humidity;BMP_temperature;BMP_pressure;BME280_temperature;BME280_humidity;BME280_pressure;Samples;Min_cycle;Max_cycle;Signal;HPM_P1;HPM_P2
2020/12/30 00:00:08;;;;;;;38.85;19.40;;;;;;;3.25;76.94;97500.34;2128804;84;21199;-94
2020/12/30 00:03:11;;;;;;;38.98;17.85;;;;;;;3.31;77.07;97502.77;2128806;84;21177;-93
2020/12/30 00:06:13;;;;;;;30.05;15.78;;;;;;;3.25;76.98;97495.17;2128443;84;21320;-93
2020/12/30 00:09:15;;;;;;;30.52;16.90;;;;;;;3.27;76.98;97511.33;2128562;84;21746;-93
2020/12/30 00:12:16;;;;;;;40.63;19.85;;;;;;;3.22;77.05;97508.92;2128519;84;21616;-94
2020/12/30 00:15:18;;;;;;;35.65;19.10;;;;;;;3.19;77.04;97504.05;2128538;84;21184;-93
2020/12/30 00:18:20;;;;;;;40.92;19.27;;;;;;;3.20;77.11;97503.91;2128541;84;21623;-94
2020/12/30 00:21:21;;;;;;;34.05;16.70;;;;;;;3.23;77.06;97495.02;2128557;84;21309;-93
2020/12/30 00:24:23;;;;;;;31.33;17.27;;;;;;;3.24;77.20;97505.19;2128807;84;21313;-93
2020/12/30 00:27:25;;;;;;;34.85;16.90;;;;;;;3.26;77.34;97510.20;2128301;84;21285;-93
2020/12/30 00:30:26;;;;;;;34.23;15.80;;;;;;;3.31;77.36;97511.83;2128539;84;21283;-94
2020/12/30 00:33:28;;;;;;;33.13;16.65;;;;;;;3.36;77.38;97511.64;2128548;84;21325;-93
2020/12/30 00:36:29;;;;;;;23.90;12.18;;;;;;;3.41;77.41;97511.17;2129365;84;21298;-89
2020/12/30 00:39:31;;;;;;;24.52;12.35;;;;;;;3.42;77.34;97512.30;2131088;84;21737;-89
2020/12/30 00:42:32;;;;;;;20.30;11.73;;;;;;;3.40;77.48;97514.73;2130547;84;21175;-93
2020/12/30 00:45:34;;;;;;;20.75;11.00;;;;;;;3.42;77.71;97516.18;2129124;84;21191;-93
2020/12/30 00:48:35;;;;;;;20.80;10.50;;;;;;;3.51;77.81;97513.58;2128503;84;21139;-94
2020/12/30 00:51:37;;;;;;;20.77;9.88;;;;;;;3.59;77.97;97507.91;2128580;84;21642;-94
2020/12/30 00:54:38;;;;;;;16.95;9.13;;;;;;;3.69;78.18;97509.83;2131086;83;21728;-94
2020/12/30 00:57:40;;;;;;;12.47;7.08;;;;;;;3.79;78.18;97508.35;2135899;83;21277;-89
2020/12/30 01:00:41;;;;;;;11.55;7.65;;;;;;;3.86;78.22;97508.02;2138081;83;21135;-88
2020/12/30 01:03:43;;;;;;;11.03;5.47;;;;;;;3.94;78.40;97512.37;2137379;83;21273;-92
2020/12/30 01:06:44;;;;;;;8.48;4.90;;;;;;;4.01;78.58;97510.70;2136751;83;21281;-93
2020/12/30 01:09:46;;;;;;;8.18;4.80;;;;;;;4.09;78.82;97508.58;2135005;83;21175;-94
2020/12/30 01:12:48;;;;;;;9.10;4.92;;;;;;;4.22;79.10;97510.97;2135078;83;21301;-94
2020/12/30 01:15:49;;;;;;;8.20;4.42;;;;;;;4.36;79.30;97502.14;2135596;83;21179;-94
2020/12/30 01:18:51;;;;;;;7.55;4.33;;;;;;;4.43;79.53;97497.91;2135125;83;21288;-94
2020/12/30 01:21:56;;;;;;;5.03;3.02;;;;;;;4.58;79.89;97506.58;2135732;83;21318;-94
2020/12/30 01:24:57;;;;;;;4.58;2.67;;;;;;;4.65;80.26;97504.90;2135469;83;21310;-93
2020/12/30 01:27:59;;;;;;;4.42;2.77;;;;;;;4.75;80.45;97498.19;2135190;83;21292;-94
2020/12/30 01:31:00;;;;;;;3.55;2.58;;;;;;;4.86;80.74;97493.92;2135262;83;21317;-93
2020/12/30 01:34:02;;;;;;;6.30;2.62;;;;;;;4.96;80.51;97500.98;2135132;83;21289;-93
2020/12/30 01:37:04;;;;;;;4.50;2.70;;;;;;;5.04;80.31;97494.94;2135391;83;21317;-93
2020/12/30 01:40:05;;;;;;;4.87;2.67;;;;;;;5.09;80.31;97501.69;2135398;83;21274;-93
2020/12/30 01:43:07;;;;;;;2.90;1.98;;;;;;;5.12;80.50;97502.63;2135152;83;21301;-93
2020/12/30 01:46:08;;;;;;;3.60;2.08;;;;;;;5.14;80.67;97504.09;2135376;83;21329;-92
2020/12/30 01:49:10;;;;;;;3.05;1.55;;;;;;;5.18;81.06;97521.41;2135163;83;21317;-93
2020/12/30 01:52:11;;;;;;;3.52;1.65;;;;;;;5.25;81.23;97528.02;2135082;83;21183;-93
2020/12/30 01:55:15;;;;;;;1.85;1.75;;;;;;;5.32;81.34;97527.14;2131562;83;21281;-94
2020/12/30 01:58:16;;;;;;;2.92;1.87;;;;;;;5.35;81.39;97534.57;2128540;84;21297;-94
2020/12/30 02:01:18;;;;;;;2.62;2.02;;;;;;;5.38;81.44;97530.31;2128212;84;21344;-93
2020/12/30 02:04:19;;;;;;;4.45;1.90;;;;;;;5.42;81.61;97517.81;2128217;84;21166;-94
2020/12/30 02:07:21;;;;;;;2.92;1.67;;;;;;;5.46;81.61;97534.64;2128632;84;21298;-93
2020/12/30 02:10:22;;;;;;;2.90;1.40;;;;;;;5.50;81.65;97534.62;2128485;84;21297;-93
2020/12/30 02:13:24;;;;;;;4.83;1.55;;;;;;;5.54;81.75;97525.98;2128511;84;21330;-93
2020/12/30 02:16:25;;;;;;;1.60;1.50;;;;;;;5.54;81.67;97526.78;2128363;84;21290;-93
2020/12/30 02:19:27;;;;;;;1.20;1.10;;;;;;;5.52;81.46;97506.69;2128502;84;21325;-93
2020/12/30 02:22:28;;;;;;;1.45;1.02;;;;;;;5.48;81.46;97517.09;2128740;84;21325;-93
2020/12/30 02:25:30;;;;;;;1.92;1.17;;;;;;;5.46;81.49;97519.06;2128465;84;21698;-94
2020/12/30 02:28:32;;;;;;;1.50;1.40;;;;;;;5.47;81.57;97514.67;2128492;84;21306;-93
2020/12/30 02:31:33;;;;;;;1.85;1.35;;;;;;;5.45;81.85;97504.47;2128410;84;21178;-93
2020/12/30 02:34:35;;;;;;;1.40;0.93;;;;;;;5.36;82.76;97506.82;2128656;84;21305;-93
2020/12/30 02:37:36;;;;;;;3.47;1.75;;;;;;;5.30;82.67;97520.03;2128518;84;21721;-94
2020/12/30 02:40:38;;;;;;;3.58;1.67;;;;;;;5.27;82.61;97524.25;2128499;84;21285;-93
2020/12/30 02:43:39;;;;;;;2.98;1.40;;;;;;;5.31;82.64;97551.48;2128626;84;21329;-93
2020/12/30 02:46:41;;;;;;;4.50;1.95;;;;;;;5.32;82.66;97527.14;2128728;84;21717;-93
2020/12/30 02:49:42;;;;;;;1.82;1.72;;;;;;;5.28;82.93;97527.16;2128705;84;21286;-94
2020/12/30 02:52:44;;;;;;;3.85;2.30;;;;;;;5.25;83.17;97513.25;2128600;84;21618;-94
2020/12/30 02:55:49;;;;;;;3.45;1.90;;;;;;;5.25;83.25;97527.52;2132631;83;21301;-94
2020/12/30 02:58:51;;;;;;;3.35;2.37;;;;;;;5.32;82.98;97545.80;2135318;83;21277;-94
2020/12/30 03:01:52;;;;;;;2.80;1.70;;;;;;;5.35;82.97;97548.05;2135329;83;21316;-93
2020/12/30 03:04:54;;;;;;;2.22;1.50;;;;;;;5.41;83.07;97537.78;2135304;83;21293;-94
2020/12/30 03:07:55;;;;;;;2.22;2.02;;;;;;;5.47;82.99;97527.16;2135174;83;21305;-93
2020/12/30 03:10:57;;;;;;;2.20;1.80;;;;;;;5.48;82.83;97527.97;2135171;83;21305;-93
2020/12/30 03:13:58;;;;;;;2.33;1.95;;;;;;;5.55;82.97;97530.18;2135203;83;21764;-93
2020/12/30 03:17:00;;;;;;;4.10;2.00;;;;;;;5.59;82.93;97524.97;2135166;83;21613;-93
2020/12/30 03:20:01;;;;;;;2.47;2.27;;;;;;;5.63;82.80;97524.91;2135439;83;21595;-94
2020/12/30 03:23:03;;;;;;;3.45;2.12;;;;;;;5.65;82.83;97521.15;2135276;83;21151;-93
2020/12/30 03:26:04;;;;;;;3.12;1.77;;;;;;;5.61;82.45;97520.40;2135397;83;21289;-93
2020/12/30 03:29:06;;;;;;;2.27;1.80;;;;;;;5.60;82.52;97516.19;2135243;83;21726;-94
2020/12/30 03:32:07;;;;;;;3.02;2.83;;;;;;;5.59;82.38;97507.59;2135373;83;21322;-92
2020/12/30 03:35:09;;;;;;;2.95;2.30;;;;;;;5.55;82.50;97503.72;2136362;83;21281;-91
2020/12/30 03:38:10;;;;;;;2.40;2.20;;;;;;;5.46;82.61;97510.47;2135462;83;21734;-94
2020/12/30 03:41:16;;;;;;;5.30;3.33;;;;;;;5.35;82.85;97502.13;2135400;83;21183;-94
2020/12/30 03:44:17;;;;;;;4.33;3.60;;;;;;;5.28;83.20;97504.30;2135280;83;21163;-94
2020/12/30 03:47:18;;;;;;;6.90;5.15;;;;;;;5.24;83.38;97501.75;2135246;83;21717;-93
2020/12/30 03:50:20;;;;;;;10.08;5.90;;;;;;;5.26;83.61;97499.77;2135299;83;21314;-94
2020/12/30 03:53:21;;;;;;;8.00;5.47;;;;;;;5.35;83.89;97496.13;2135522;83;21321;-91
2020/12/30 03:56:23;;;;;;;8.75;6.67;;;;;;;5.41;83.75;97505.33;2103555;84;21723;-92
2020/12/30 03:59:24;;;;;;;9.88;6.33;;;;;;;5.45;83.61;97509.66;2120244;84;21320;-94
2020/12/30 04:02:26;;;;;;;6.10;4.20;;;;;;;5.48;83.59;97510.59;2119976;84;21777;-94
2020/12/30 04:05:27;;;;;;;4.20;3.47;;;;;;;5.48;83.33;97514.98;2119646;84;21293;-94
2020/12/30 04:08:28;;;;;;;3.60;3.30;;;;;;;5.47;83.21;97530.25;2119581;84;21585;-94
2020/12/30 04:11:30;;;;;;;4.33;3.80;;;;;;;5.47;82.95;97527.16;2119669;84;21746;-94
2020/12/30 04:14:32;;;;;;;4.33;3.37;;;;;;;5.48;83.02;97530.56;2119627;84;21305;-94
2020/12/30 04:17:33;;;;;;;7.78;4.10;;;;;;;5.47;83.24;97524.56;2119780;84;21292;-93
2020/12/30 04:20:35;;;;;;;5.42;3.42;;;;;;;5.40;83.38;97524.48;2119756;84;21737;-94
2020/12/30 04:23:36;;;;;;;4.33;3.58;;;;;;;5.33;83.96;97511.08;2119732;84;21312;-93
2020/12/30 04:26:38;;;;;;;3.98;3.15;;;;;;;5.20;83.66;97528.52;2119346;84;21324;-93
2020/12/30 04:29:39;;;;;;;4.95;3.70;;;;;;;5.15;84.37;97511.38;2119689;84;21733;-94
2020/12/30 04:32:40;;;;;;;5.70;3.62;;;;;;;5.10;84.52;97514.48;2119865;84;21162;-94
2020/12/30 04:35:42;;;;;;;13.22;7.87;;;;;;;5.05;84.14;97512.92;2119743;84;21325;-94
2020/12/30 04:38:47;;;;;;;10.35;7.58;;;;;;;5.02;84.53;97524.91;2119690;84;21170;-94
2020/12/30 04:41:48;;;;;;;5.80;4.83;;;;;;;5.05;84.34;97498.64;2119630;84;21285;-94
2020/12/30 04:44:50;;;;;;;4.87;4.33;;;;;;;5.02;84.63;97504.66;2119587;84;21297;-93
2020/12/30 04:47:51;;;;;;;5.85;4.25;;;;;;;5.00;84.67;97499.64;2119716;84;21185;-94
2020/12/30 04:50:53;;;;;;;5.97;5.37;;;;;;;5.01;84.67;97504.34;2119718;84;21757;-93
2020/12/30 04:53:54;;;;;;;5.83;4.80;;;;;;;5.03;84.54;97499.78;2119885;84;21194;-93
2020/12/30 04:56:56;;;;;;;7.62;4.80;;;;;;;5.09;84.71;97511.58;2132132;83;21309;-94
2020/12/30 04:59:57;;;;;;;7.53;4.85;;;;;;;5.15;84.53;97516.57;2135395;83;21317;-93
2020/12/30 05:02:59;;;;;;;5.80;4.65;;;;;;;5.17;84.65;97512.01;2135025;83;21131;-93
2020/12/30 05:06:00;;;;;;;6.95;4.78;;;;;;;5.19;84.51;97505.34;2134943;83;21297;-93
2020/12/30 05:09:04;;;;;;;7.85;4.90;;;;;;;5.17;85.34;97508.61;2135163;83;21304;-93
2020/12/30 05:12:05;;;;;;;10.78;7.05;;;;;;;5.09;84.53;97500.39;2135368;83;21301;-93
2020/12/30 05:15:07;;;;;;;10.70;6.80;;;;;;;5.04;85.06;97506.61;2135178;83;21579;-93
2020/12/30 05:18:09;;;;;;;13.70;8.50;;;;;;;5.04;84.80;97511.30;2134855;83;21305;-94
2020/12/30 05:21:11;;;;;;;15.30;8.25;;;;;;;5.08;84.70;97493.09;2135503;83;21309;-95
2020/12/30 05:24:13;;;;;;;30.88;13.55;;;;;;;5.09;84.63;97495.20;2135348;83;21717;-94
2020/12/30 05:27:14;;;;;;;26.45;12.00;;;;;;;5.04;84.69;97496.23;2135488;83;21309;-95
2020/12/30 05:30:16;;;;;;;11.25;7.87;;;;;;;4.99;84.60;97505.02;2135209;83;21297;-95
2020/12/30 05:33:17;;;;;;;19.42;9.05;;;;;;;4.95;84.76;97517.53;2135201;83;21781;-95
2020/12/30 05:36:19;;;;;;;19.05;9.73;;;;;;;5.02;84.86;97532.70;2135535;83;21293;-96
2020/12/30 05:39:21;;;;;;;18.35;10.38;;;;;;;5.09;84.60;97527.63;2135924;83;21171;-95
2020/12/30 05:42:23;;;;;;;16.40;7.85;;;;;;;5.18;84.70;97529.68;2135333;83;21171;-94
2020/12/30 05:45:24;;;;;;;15.30;9.33;;;;;;;5.20;84.33;97537.59;2135552;83;21304;-94
2020/12/30 05:48:29;;;;;;;23.60;12.00;;;;;;;5.20;84.52;97553.17;2135371;83;21300;-94
2020/12/30 05:51:31;;;;;;;13.70;9.35;;;;;;;5.31;84.52;97555.38;2134843;83;21174;-94
2020/12/30 05:54:32;;;;;;;18.75;9.70;;;;;;;5.38;84.37;97551.58;2135192;83;21304;-96
2020/12/30 05:57:34;;;;;;;12.47;7.00;;;;;;;5.40;84.17;97546.55;2134966;83;21336;-95
2020/12/30 06:00:35;;;;;;;10.15;6.75;;;;;;;5.38;84.00;97548.98;2135125;83;21293;-95
2020/12/30 06:03:37;;;;;;;9.90;5.90;;;;;;;5.35;84.02;97551.94;2135165;83;21301;-95
2020/12/30 06:06:39;;;;;;;7.00;5.35;;;;;;;5.32;83.95;97552.30;2135164;83;21321;-94
2020/12/30 06:09:40;;;;;;;16.23;9.33;;;;;;;5.27;83.86;97548.10;2134981;83;21300;-95
2020/12/30 06:12:42;;;;;;;28.52;14.80;;;;;;;5.20;83.85;97546.69;2135142;83;21690;-94
2020/12/30 06:15:43;;;;;;;13.93;8.33;;;;;;;5.19;83.89;97535.99;2135469;83;21297;-95
2020/12/30 06:18:52;;;;;;;14.30;8.45;;;;;;;5.16;83.92;97535.05;2136290;83;21346;-96
2020/12/30 06:21:54;;;;;;;10.63;8.48;;;;;;;5.09;84.05;97531.03;2109206;83;21175;-96
2020/12/30 06:24:55;;;;;;;9.48;7.42;;;;;;;5.07;84.07;97529.11;2135742;83;21328;-96
2020/12/30 06:27:57;;;;;;;10.43;7.58;;;;;;;5.05;84.02;97526.38;2137669;83;21305;-92
2020/12/30 06:31:01;;;;;;;10.25;7.12;;;;;;;5.03;83.98;97526.56;2137121;83;21629;-95
2020/12/30 06:34:03;;;;;;;14.35;12.28;;;;;;;5.04;84.08;97528.17;2136074;83;21186;-96
2020/12/30 06:37:07;;;;;;;17.32;12.07;;;;;;;5.10;84.07;97533.94;2137272;83;21301;-94
2020/12/30 06:40:33;;;;;;;24.87;14.93;;;;;;;5.12;84.02;97530.71;2136951;83;21746;-96
2020/12/30 06:53:41;;;;;;;17.75;15.10;;;;;;;5.01;83.87;97526.39;2092655;82;21191;-96
2020/12/30 06:56:43;;;;;;;12.63;6.72;;;;;;;4.96;84.07;97543.79;2101555;85;21334;-96
2020/12/30 06:59:45;;;;;;;15.20;10.35;;;;;;;4.90;84.08;97539.28;2107353;82;21318;-96
2020/12/30 07:02:47;;;;;;;22.75;11.60;;;;;;;4.84;84.23;97537.36;2119289;84;21168;-96
2020/12/30 07:28:03;;;;;;;13.98;8.05;;;;;;;5.19;84.03;97532.09;1963770;90;21376;-96
2020/12/30 07:31:05;;;;;;;16.97;9.70;;;;;;;5.21;83.59;97530.16;1963516;90;21244;-96
2020/12/30 07:34:08;;;;;;;15.83;9.88;;;;;;;5.12;83.57;97528.11;1966861;89;21204;-96
2020/12/30 07:37:16;;;;;;;12.03;7.75;;;;;;;5.09;83.66;97512.88;1964518;90;21288;-96
2020/12/30 07:40:24;;;;;;;28.32;16.07;;;;;;;5.08;83.70;97514.34;1988254;89;21196;-96
2020/12/30 07:43:32;;;;;;;22.50;12.43;;;;;;;5.01;83.61;97516.02;1968790;89;21377;-96
2020/12/30 07:46:41;;;;;;;20.02;13.18;;;;;;;5.01;83.65;97518.12;1988732;89;21396;-96
2020/12/30 07:49:41;;;;;;;13.68;10.85;;;;;;;5.02;83.65;97520.22;1983319;89;21370;-96
2020/12/30 07:52:46;;;;;;;15.05;10.40;;;;;;;5.05;83.61;97526.38;1964157;90;21195;-96
2020/12/30 07:55:59;;;;;;;15.20;9.78;;;;;;;5.01;83.68;97528.98;1988106;89;21375;-96
2020/12/30 07:59:08;;;;;;;14.75;9.95;;;;;;;5.08;83.85;97528.12;1995262;87;21204;-96
2020/12/30 08:02:36;;;;;;;13.32;8.88;;;;;;;5.06;83.50;97526.20;2084064;85;21144;-96
2020/12/30 08:05:57;;;;;;;13.68;9.13;;;;;;;5.07;83.66;97530.41;2087395;85;21266;-96
2020/12/30 08:12:30;;;;;;;15.25;10.38;;;;;;;5.12;83.61;97530.71;2084467;85;21154;-96
2020/12/30 08:15:43;;;;;;;15.45;10.48;;;;;;;5.17;83.84;97528.88;2029391;88;21845;-96
2020/12/30 08:18:46;;;;;;;11.27;9.57;;;;;;;5.22;83.58;97520.58;1993930;88;21393;-96
2020/12/30 08:21:49;;;;;;;13.38;8.68;;;;;;;5.23;83.40;97517.00;2103442;84;21263;-96
2020/12/30 08:24:51;;;;;;;11.18;9.40;;;;;;;5.25;83.52;97519.73;2118719;83;21163;-96
2020/12/30 08:28:09;;;;;;;12.73;9.08;;;;;;;5.23;83.40;97517.00;2103904;83;21128;-96
2020/12/30 08:31:34;;;;;;;15.32;8.38;;;;;;;5.12;83.44;97520.33;2102541;83;21290;-96
2020/12/30 08:38:02;;;;;;;13.32;10.35;;;;;;;5.05;83.74;97518.59;2130328;83;21290;-95
2020/12/30 08:52:12;;;;;;;11.80;7.00;;;;;;;5.14;83.70;97518.36;1993666;88;21702;-96
2020/12/30 08:55:15;;;;;;;10.72;7.65;;;;;;;5.05;83.72;97527.67;1993495;89;21372;-93
2020/12/30 08:58:17;;;;;;;14.45;8.38;;;;;;;5.06;83.99;97526.70;1993007;89;22339;-96
2020/12/30 09:01:22;;;;;;;10.20;8.18;;;;;;;5.04;83.86;97533.85;1963560;89;21324;-96
2020/12/30 09:04:24;;;;;;;10.03;8.78;;;;;;;5.04;83.91;97530.77;1965706;90;21352;-96
2020/12/30 09:07:27;;;;;;;11.90;7.55;;;;;;;5.09;83.91;97522.45;1944611;90;21201;-96
2020/12/30 09:14:28;;;;;;;11.43;7.85;;;;;;;5.13;83.66;97514.65;1945929;91;21453;-95
2020/12/30 09:17:30;;;;;;;15.18;9.03;;;;;;;5.22;83.69;97530.47;1967497;89;21371;-95
2020/12/30 09:20:32;;;;;;;11.63;8.50;;;;;;;5.28;83.56;97528.45;1992142;89;21397;-94
2020/12/30 09:23:36;;;;;;;11.70;9.10;;;;;;;5.38;83.49;97535.51;1994187;87;21424;-91
2020/12/30 09:26:49;;;;;;;10.48;8.53;;;;;;;5.53;83.42;97530.86;1993949;89;21362;-94
2020/12/30 09:29:53;;;;;;;11.40;8.98;;;;;;;5.67;83.35;97529.59;1977813;87;21634;-92
2020/12/30 09:32:57;;;;;;;13.53;10.45;;;;;;;5.79;83.24;97528.66;1975491;89;21140;-93
2020/12/30 09:35:58;;;;;;;13.38;9.43;;;;;;;5.89;83.04;97532.30;1981786;90;21198;-93
2020/12/30 09:39:00;;;;;;;18.73;11.78;;;;;;;5.93;82.72;97526.58;1975078;90;21221;-92
2020/12/30 09:42:04;;;;;;;16.73;11.18;;;;;;;5.97;82.85;97534.34;1970324;90;21217;-94
2020/12/30 09:45:07;;;;;;;15.25;10.58;;;;;;;6.02;82.56;97539.48;1971306;90;21375;-92
2020/12/30 09:48:14;;;;;;;17.12;11.12;;;;;;;6.08;82.38;97523.19;1971799;90;21320;-96
2020/12/30 09:51:29;;;;;;;14.25;10.55;;;;;;;6.11;82.39;97523.63;1971538;90;21820;-94
2020/12/30 09:54:31;;;;;;;16.67;11.25;;;;;;;6.07;82.11;97526.28;1984193;88;21177;-93
2020/12/30 09:57:32;;;;;;;13.80;10.03;;;;;;;6.04;82.21;97530.55;2038537;87;21604;-95
2020/12/30 10:00:34;;;;;;;14.75;11.45;;;;;;;6.05;82.28;97544.34;2039991;87;21208;-95
2020/12/30 10:03:37;;;;;;;16.37;11.63;;;;;;;6.04;82.33;97533.64;2039964;87;21307;-95
2020/12/30 10:06:39;;;;;;;17.02;11.63;;;;;;;6.04;82.12;97541.44;2039553;87;21335;-92
2020/12/30 10:09:41;;;;;;;17.65;12.25;;;;;;;6.04;82.20;97546.64;2039486;87;21187;-90
2020/12/30 10:12:43;;;;;;;19.27;11.83;;;;;;;6.04;82.34;97546.64;2020904;87;21172;-96
2020/12/30 10:15:45;;;;;;;21.17;14.10;;;;;;;6.10;82.39;97537.61;2039919;87;21302;-91
2020/12/30 10:18:47;;;;;;;17.55;12.53;;;;;;;6.11;82.25;97534.02;2039734;87;21289;-92
2020/12/30 10:21:49;;;;;;;22.67;14.18;;;;;;;6.09;82.28;97542.98;2040051;87;21161;-91
2020/12/30 10:24:51;;;;;;;29.02;17.12;;;;;;;6.11;82.37;97544.42;2039492;87;21184;-92
2020/12/30 10:27:52;;;;;;;35.40;21.35;;;;;;;6.18;82.54;97534.92;2039552;87;21175;-93
2020/12/30 10:30:54;;;;;;;44.98;25.62;;;;;;;6.23;82.10;97531.80;2045672;85;21183;-91
2020/12/30 10:33:58;;;;;;;42.98;24.67;;;;;;;6.26;82.14;97537.43;2061951;86;21215;-92
2020/12/30 10:36:59;;;;;;;38.23;23.85;;;;;;;6.32;82.28;97526.81;2062182;86;21635;-92
2020/12/30 10:40:01;;;;;;;48.23;29.95;;;;;;;6.40;82.25;97524.12;2062429;86;21163;-93
2020/12/30 10:43:03;;;;;;;58.68;38.83;;;;;;;6.43;82.04;97525.05;2062221;86;21186;-92
2020/12/30 10:46:05;;;;;;;72.78;49.70;;;;;;;6.52;82.19;97516.65;2062383;86;21162;-92
2020/12/30 10:49:07;;;;;;;60.58;42.95;;;;;;;6.58;81.97;97506.79;2062343;86;21614;-93
2020/12/30 10:52:08;;;;;;;26.77;19.17;;;;;;;6.63;81.94;97511.45;2062160;86;21183;-91
2020/12/30 10:55:14;;;;;;;23.40;17.07;;;;;;;6.68;81.63;97503.42;2062305;86;21192;-96
2020/12/30 10:58:22;;;;;;;17.37;13.58;;;;;;;6.73;81.74;97502.86;2044427;86;21191;-95
2020/12/30 11:01:24;;;;;;;24.70;14.80;;;;;;;6.72;81.35;97492.15;2062476;86;21206;-91
2020/12/30 11:04:25;;;;;;;26.40;16.75;;;;;;;6.66;81.70;97494.98;2062377;86;21215;-91
2020/12/30 11:07:27;;;;;;;23.95;16.30;;;;;;;6.74;81.54;97492.27;2062073;86;21187;-93
2020/12/30 11:10:28;;;;;;;24.18;16.07;;;;;;;6.74;81.51;97493.56;2062731;86;21199;-91
2020/12/30 11:13:30;;;;;;;24.02;15.60;;;;;;;6.76;81.59;97488.17;2061884;86;21187;-92
2020/12/30 11:16:31;;;;;;;23.07;16.20;;;;;;;6.85;81.74;97487.06;2062472;86;21202;-92
2020/12/30 11:19:33;;;;;;;22.48;16.05;;;;;;;6.90;81.70;97482.12;2062626;86;21201;-92
2020/12/30 11:22:34;;;;;;;19.23;13.62;;;;;;;6.93;81.48;97485.64;2062545;86;21613;-92
2020/12/30 11:25:36;;;;;;;18.25;12.60;;;;;;;6.93;81.06;97484.84;2063072;86;21183;-91
2020/12/30 11:28:38;;;;;;;18.07;13.15;;;;;;;6.87;80.94;97476.00;2062799;86;21191;-91
2020/12/30 11:31:39;;;;;;;20.15;13.05;;;;;;;6.82;81.20;97470.53;2096751;83;21255;-92
2020/12/30 11:34:41;;;;;;;20.77;14.18;;;;;;;6.86;81.21;97466.59;2136019;83;21139;-91
2020/12/30 11:37:42;;;;;;;21.60;14.98;;;;;;;6.93;81.33;97462.72;2130403;84;21159;-92
2020/12/30 11:40:44;;;;;;;22.05;13.32;;;;;;;6.87;81.08;97460.88;2130305;84;21128;-92
2020/12/30 11:43:46;;;;;;;21.20;13.58;;;;;;;6.77;81.00;97463.30;2130388;84;21668;-92
2020/12/30 11:46:47;;;;;;;16.50;13.30;;;;;;;6.70;81.13;97455.92;2130394;84;21160;-91
2020/12/30 11:49:49;;;;;;;18.05;13.72;;;;;;;6.72;81.28;97468.23;2130388;84;21171;-92
2020/12/30 11:52:50;;;;;;;20.95;15.15;;;;;;;6.78;81.53;97464.10;2130474;84;21153;-92
2020/12/30 11:55:52;;;;;;;20.82;13.25;;;;;;;6.82;81.39;97471.34;2130476;84;21191;-90
2020/12/30 11:58:54;;;;;;;21.02;14.23;;;;;;;6.82;81.47;97462.73;2130632;84;21187;-91
2020/12/30 12:01:55;;;;;;;20.60;14.83;;;;;;;6.80;81.27;97463.41;2130427;84;21473;-91
2020/12/30 12:04:59;;;;;;;23.25;15.55;;;;;;;6.77;81.41;97463.30;2130500;84;21131;-91
2020/12/30 12:08:01;;;;;;;19.12;14.10;;;;;;;6.78;81.10;97467.51;2130453;84;21666;-90
2020/12/30 12:11:06;;;;;;;17.67;13.62;;;;;;;6.74;81.17;97467.55;2130568;84;21675;-91
2020/12/30 12:14:07;;;;;;;21.93;15.78;;;;;;;6.79;81.34;97470.91;2130724;83;21211;-90
2020/12/30 12:17:09;;;;;;;22.95;15.40;;;;;;;6.68;81.23;97477.41;2130514;84;21592;-91
2020/12/30 12:20:10;;;;;;;28.07;15.05;;;;;;;6.66;81.36;97479.38;2130402;84;21158;-91
2020/12/30 12:23:12;;;;;;;18.92;14.28;;;;;;;6.64;81.49;97470.95;2130462;84;21190;-91
2020/12/30 12:26:13;;;;;;;21.60;14.75;;;;;;;6.67;81.59;97475.78;2130769;84;21646;-92
2020/12/30 12:29:15;;;;;;;18.90;14.10;;;;;;;6.66;81.52;97479.87;2130824;84;21135;-92
2020/12/30 12:32:17;;;;;;;18.07;14.68;;;;;;;6.70;81.68;97479.83;2130269;83;21191;-91
2020/12/30 12:35:18;;;;;;;20.77;13.65;;;;;;;6.69;81.57;97482.12;2130398;84;21176;-91
2020/12/30 12:38:20;;;;;;;19.70;14.93;;;;;;;6.61;81.65;97485.64;2130423;84;21646;-91
2020/12/30 12:41:21;;;;;;;20.90;15.32;;;;;;;6.51;81.70;97486.43;2130453;84;21638;-91
2020/12/30 12:44:23;;;;;;;24.05;15.28;;;;;;;6.50;81.71;97486.13;2130451;84;21143;-92
2020/12/30 12:47:24;;;;;;;23.18;15.00;;;;;;;6.47;81.95;97487.27;2130549;84;21159;-93
2020/12/30 12:50:26;;;;;;;25.62;16.77;;;;;;;6.52;81.99;97495.34;2130832;84;21183;-91
2020/12/30 12:53:28;;;;;;;25.52;16.27;;;;;;;6.56;82.11;97495.77;2130567;84;21194;-90
2020/12/30 12:56:29;;;;;;;21.15;12.10;;;;;;;6.53;82.07;97502.65;2130434;84;21678;-91
2020/12/30 12:59:32;;;;;;;14.95;10.18;;;;;;;6.49;81.96;97500.09;2130492;84;21155;-91
2020/12/30 13:02:34;;;;;;;14.40;10.82;;;;;;;6.46;82.06;97506.97;2130461;84;21182;-91
2020/12/30 13:05:35;;;;;;;17.57;11.00;;;;;;;6.44;81.94;97506.34;2130634;84;21159;-91
2020/12/30 13:08:37;;;;;;;13.32;10.20;;;;;;;6.43;81.98;97504.73;2130444;84;21155;-92
2020/12/30 13:11:39;;;;;;;16.70;11.08;;;;;;;6.39;82.21;97510.78;2130290;84;21159;-92
2020/12/30 13:14:40;;;;;;;13.85;9.65;;;;;;;6.39;82.25;97511.27;2130170;82;21203;-92
2020/12/30 13:17:42;;;;;;;19.50;11.25;;;;;;;6.36;82.26;97518.15;2130704;84;21195;-90
2020/12/30 13:20:45;;;;;;;16.87;11.80;;;;;;;6.31;82.23;97520.00;2130201;84;21313;-90
2020/12/30 13:23:47;;;;;;;19.10;11.20;;;;;;;6.31;82.23;97520.00;2130409;83;21172;-91
2020/12/30 13:26:53;;;;;;;20.20;12.15;;;;;;;6.28;82.22;97523.75;2130520;84;21761;-92
2020/12/30 13:30:01;;;;;;;28.38;17.85;;;;;;;6.30;82.37;97520.97;2130189;84;21603;-92
2020/12/30 13:33:03;;;;;;;22.10;12.63;;;;;;;6.28;82.29;97522.95;2118751;82;21196;-90
2020/12/30 13:36:05;;;;;;;17.05;10.32;;;;;;;6.25;81.92;97524.13;2114159;84;21599;-91
2020/12/30 13:39:06;;;;;;;14.30;9.33;;;;;;;6.22;82.00;97527.09;2114302;84;21148;-90
2020/12/30 13:42:08;;;;;;;17.77;10.75;;;;;;;6.19;82.01;97530.03;2114144;84;21592;-91
2020/12/30 13:45:10;;;;;;;16.02;10.70;;;;;;;6.14;82.07;97531.58;2114084;84;21199;-91
2020/12/30 13:48:11;;;;;;;18.60;9.80;;;;;;;6.12;82.01;97540.83;2113944;84;21167;-90
2020/12/30 13:51:13;;;;;;;19.90;11.93;;;;;;;6.10;82.11;97525.91;2114264;84;21116;-90
2020/12/30 13:54:15;;;;;;;18.82;11.55;;;;;;;6.10;82.13;97534.20;2114497;84;21559;-90
2020/12/30 13:57:25;;;;;;;37.50;19.70;;;;;;;6.04;82.01;97538.84;2113900;84;21179;-90
2020/12/30 14:00:29;;;;;;;33.35;16.48;;;;;;;5.98;82.24;97533.86;2113853;84;21318;-91
2020/12/30 14:03:30;;;;;;;27.48;14.60;;;;;;;5.97;82.36;97540.04;2114105;84;21152;-91
2020/12/30 14:06:36;;;;;;;20.02;13.40;;;;;;;5.95;82.39;97541.52;2114158;84;21837;-96
2020/12/30 14:09:38;;;;;;;21.55;13.98;;;;;;;5.96;82.45;97537.94;2115082;84;21145;-93
2020/12/30 14:12:40;;;;;;;20.75;14.80;;;;;;;5.92;82.45;97536.66;2114494;84;21191;-95
2020/12/30 14:15:44;;;;;;;21.65;15.08;;;;;;;5.89;82.69;97539.59;2115035;84;21247;-93
2020/12/30 14:18:46;;;;;;;23.32;14.05;;;;;;;5.87;82.76;97540.27;2115449;84;21338;-92
2020/12/30 14:21:48;;;;;;;23.47;14.85;;;;;;;5.86;82.79;97538.66;2114463;84;21160;-93
2020/12/30 14:24:50;;;;;;;19.07;12.10;;;;;;;5.89;82.83;97547.39;2114840;84;21310;-94
2020/12/30 14:28:11;;;;;;;20.30;12.65;;;;;;;5.89;82.74;97539.59;2115050;84;21294;-93
2020/12/30 14:31:12;;;;;;;19.92;11.85;;;;;;;5.87;82.84;97545.47;2114299;82;21309;-94
2020/12/30 14:34:14;;;;;;;18.35;12.28;;;;;;;5.85;82.86;97545.31;2114715;84;21616;-95
2020/12/30 14:37:18;;;;;;;20.15;12.65;;;;;;;5.84;83.00;97546.30;2114929;84;21164;-96
2020/12/30 14:40:21;;;;;;;22.55;13.48;;;;;;;5.81;82.98;97551.86;2115269;84;21291;-94
2020/12/30 14:43:22;;;;;;;23.90;13.95;;;;;;;5.82;82.92;97549.57;2114799;84;21322;-94
2020/12/30 14:46:24;;;;;;;19.98;12.65;;;;;;;5.79;82.92;97549.94;2115322;84;21185;-94
2020/12/30 14:49:25;;;;;;;21.93;13.00;;;;;;;5.78;83.02;97553.03;2115291;84;21168;-94
2020/12/30 14:52:27;;;;;;;17.82;11.70;;;;;;;5.80;83.26;97552.84;2115236;84;21766;-94
2020/12/30 14:55:30;;;;;;;18.25;11.93;;;;;;;5.78;83.03;97554.33;2115758;84;21762;-94
2020/12/30 14:58:32;;;;;;;21.00;13.13;;;;;;;5.70;83.00;97550.01;2115966;84;21345;-93
2020/12/30 15:01:47;;;;;;;19.60;13.45;;;;;;;5.76;83.21;97558.06;2115753;84;21140;-96
2020/12/30 15:04:49;;;;;;;24.57;15.20;;;;;;;5.77;83.03;97550.12;2115714;84;21164;-95
2020/12/30 15:08:07;;;;;;;24.32;14.83;;;;;;;5.76;83.13;97547.20;2115737;84;21145;-93
2020/12/30 15:11:08;;;;;;;30.70;16.85;;;;;;;5.78;83.25;97542.64;2116104;84;21168;-95